createdAt,value
2022-09-10T00:01:30.309Z,8.03
2022-09-10T00:03:59.134Z,8.00
2022-09-10T00:06:28.281Z,8.40
2022-09-10T00:08:58.741Z,9.70
2022-09-10T00:11:31.762Z,9.20
2022-09-10T00:13:59.667Z,9.13
2022-09-10T00:16:29.003Z,9.47
2022-09-10T00:18:57.470Z,8.73
2022-09-10T00:21:25.954Z,9.40
2022-09-10T00:23:54.401Z,9.00
2022-09-10T00:26:27.313Z,9.20
2022-09-10T00:28:56.828Z,8.57
2022-09-10T00:31:25.559Z,8.47
2022-09-10T00:33:54.945Z,9.57
2022-09-10T00:36:25.646Z,9.43
2022-09-10T00:38:55.961Z,8.70
2022-09-10T00:41:25.982Z,8.43
2022-09-10T00:43:56.367Z,9.07
2022-09-10T00:46:30.755Z,9.10
2022-09-10T00:49:02.075Z,9.10
2022-09-10T00:51:34.585Z,9.60
2022-09-10T00:54:04.195Z,9.17
2022-09-10T00:56:34.930Z,9.17
2022-09-10T00:59:04.947Z,8.20
2022-09-10T01:01:33.835Z,8.37
2022-09-10T01:04:02.659Z,7.97
2022-09-10T01:06:31.217Z,7.10
2022-09-10T01:08:59.870Z,7.50
2022-09-10T01:11:42.469Z,6.30
2022-09-10T01:14:25.636Z,8.30
2022-09-10T01:17:04.556Z,8.27
2022-09-10T01:20:08.131Z,8.47
2022-09-10T01:22:51.590Z,7.90
2022-09-10T01:25:32.149Z,8.13
2022-09-10T01:28:08.277Z,8.87
2022-09-10T01:30:42.987Z,8.20
2022-09-10T01:33:17.872Z,8.73
2022-09-10T01:35:50.470Z,8.23
2022-09-10T01:38:23.223Z,8.30
2022-09-10T01:40:51.784Z,9.20
2022-09-10T01:43:22.740Z,9.20
2022-09-10T01:46:05.360Z,8.80
2022-09-10T01:48:55.993Z,8.27
2022-09-10T01:51:34.971Z,8.17
2022-09-10T01:54:25.461Z,8.70
2022-09-10T01:57:06.597Z,8.53
2022-09-10T01:59:44.472Z,8.80
2022-09-10T02:02:19.219Z,8.97
2022-09-10T02:04:48.294Z,9.23
2022-09-10T02:07:19.251Z,8.17
2022-09-10T02:09:47.510Z,8.30
2022-09-10T02:12:22.005Z,8.50
2022-09-10T02:14:55.288Z,8.97
2022-09-10T02:17:26.327Z,9.47
2022-09-10T02:19:56.231Z,8.47
2022-09-10T02:22:24.968Z,7.93
2022-09-10T02:24:53.236Z,8.30
2022-09-10T02:27:21.256Z,8.00
2022-09-10T02:29:49.570Z,8.03
2022-09-10T02:32:18.835Z,8.60
2022-09-10T02:34:46.889Z,7.97
2022-09-10T02:37:16.045Z,8.83
2022-09-10T02:39:44.966Z,8.50
2022-09-10T02:42:14.363Z,7.63
2022-09-10T02:44:42.408Z,8.13
2022-09-10T02:47:10.359Z,8.80
2022-09-10T02:49:39.765Z,7.43
2022-09-10T02:52:08.770Z,8.90
2022-09-10T02:54:37.068Z,8.37
2022-09-10T02:57:05.509Z,7.97
2022-09-10T02:59:33.924Z,8.40
2022-09-10T03:02:01.917Z,8.40
2022-09-10T03:04:29.969Z,8.33
2022-09-10T03:06:59.364Z,7.90
2022-09-10T03:09:29.038Z,8.40
2022-09-10T03:11:57.068Z,8.50
2022-09-10T03:14:25.882Z,8.53
2022-09-10T03:16:53.892Z,7.77
2022-09-10T03:19:22.061Z,8.27
2022-09-10T03:21:50.056Z,7.77
2022-09-10T03:24:19.453Z,8.80
2022-09-10T03:26:47.597Z,8.87
2022-09-10T03:29:16.041Z,8.37
2022-09-10T03:31:46.447Z,7.50
2022-09-10T03:34:14.727Z,7.90
2022-09-10T03:36:42.755Z,7.13
2022-09-10T03:39:10.719Z,7.40
2022-09-10T03:41:40.214Z,6.80
2022-09-10T03:44:08.429Z,6.60
2022-09-10T03:46:37.726Z,8.30
2022-09-10T03:49:05.725Z,7.27
2022-09-10T03:51:34.149Z,7.63
2022-09-10T03:54:02.611Z,7.47
2022-09-10T03:56:30.613Z,6.90
2022-09-10T03:59:00.554Z,7.80
2022-09-10T04:01:28.790Z,6.97
2022-09-10T04:03:58.295Z,6.73
2022-09-10T04:06:26.290Z,6.43
2022-09-10T04:08:54.366Z,6.67
2022-09-10T04:11:24.334Z,7.07
2022-09-10T04:13:52.536Z,7.10
2022-09-10T04:16:23.511Z,7.00
2022-09-10T04:18:51.814Z,7.50
2022-09-10T04:21:20.374Z,6.50
2022-09-10T04:23:48.516Z,6.03
2022-09-10T04:26:18.394Z,6.27
2022-09-10T04:28:46.952Z,6.80
2022-09-10T04:31:14.881Z,6.80
2022-09-10T04:33:44.976Z,6.83
2022-09-10T04:36:14.284Z,6.33
2022-09-10T04:38:43.449Z,6.97
2022-09-10T04:41:12.206Z,7.00
2022-09-10T04:43:40.890Z,6.87
2022-09-10T04:46:08.954Z,6.70
2022-09-10T04:48:36.911Z,6.87
2022-09-10T04:51:16.307Z,7.70
2022-09-10T04:53:44.931Z,6.10
2022-09-10T04:56:13.413Z,6.60
2022-09-10T04:58:42.275Z,6.80
2022-09-10T05:01:10.585Z,7.47
2022-09-10T05:03:38.940Z,7.00
2022-09-10T05:06:08.584Z,7.50
2022-09-10T05:08:36.814Z,7.20
2022-09-10T05:11:05.190Z,6.17
2022-09-10T05:13:33.180Z,6.63
2022-09-10T05:16:01.795Z,7.50
2022-09-10T05:18:29.708Z,6.93
2022-09-10T05:20:57.631Z,6.00
2022-09-10T05:23:27.365Z,6.33
2022-09-10T05:25:56.791Z,6.97
2022-09-10T05:28:25.123Z,7.80
2022-09-10T05:30:53.116Z,6.90
2022-09-10T05:33:21.482Z,7.20
2022-09-10T05:35:51.803Z,6.87
2022-09-10T05:38:21.450Z,7.20
2022-09-10T05:40:51.137Z,6.90
2022-09-10T05:43:19.087Z,6.90
2022-09-10T05:45:49.719Z,6.77
2022-09-10T05:48:17.766Z,6.80
2022-09-10T05:50:46.570Z,7.40
2022-09-10T05:53:14.921Z,7.37
2022-09-10T05:55:44.468Z,5.27
2022-09-10T05:58:15.073Z,6.53
2022-09-10T06:00:44.079Z,6.47
2022-09-10T06:03:13.758Z,5.83
2022-09-10T06:05:42.007Z,6.50
2022-09-10T06:08:10.524Z,7.30
2022-09-10T06:10:38.673Z,5.97
2022-09-10T06:13:07.932Z,5.70
2022-09-10T06:15:38.042Z,6.40
2022-09-10T06:18:06.084Z,6.70
2022-09-10T06:20:34.165Z,6.87
2022-09-10T06:23:02.128Z,6.33
2022-09-10T06:25:31.243Z,6.03
2022-09-10T06:27:59.152Z,6.20
2022-09-10T06:30:27.259Z,6.33
2022-09-10T06:32:57.570Z,6.13
2022-09-10T06:35:27.232Z,5.63
2022-09-10T06:37:56.140Z,5.60
2022-09-10T06:40:27.771Z,6.13
2022-09-10T06:42:55.773Z,5.70
2022-09-10T06:45:24.220Z,6.07
2022-09-10T06:48:37.019Z,5.33
2022-09-10T06:50:51.666Z,6.00
2022-09-10T06:53:22.166Z,6.67
2022-09-10T06:55:50.892Z,5.90
2022-09-10T06:58:20.075Z,5.97
2022-09-10T07:00:48.656Z,6.97
2022-09-10T07:03:17.564Z,7.23
2022-09-10T07:05:47.824Z,6.47
2022-09-10T07:08:17.789Z,6.37
2022-09-10T07:10:46.833Z,6.93
2022-09-10T07:13:15.075Z,7.23
2022-09-10T07:15:46.837Z,8.00
2022-09-10T07:18:24.136Z,7.47
2022-09-10T07:20:54.030Z,6.93
2022-09-10T07:23:40.798Z,6.87
2022-09-10T07:26:11.516Z,6.73
2022-09-10T07:28:42.451Z,6.80
2022-09-10T07:31:15.758Z,6.40
2022-09-10T07:33:44.003Z,6.33
2022-09-10T07:36:13.615Z,6.13
2022-09-10T07:38:42.889Z,5.80
2022-09-10T07:41:13.346Z,5.33
2022-09-10T07:43:41.771Z,5.83
2022-09-10T07:46:13.691Z,6.63
2022-09-10T07:48:41.738Z,6.40
2022-09-10T07:51:11.191Z,5.53
2022-09-10T07:53:49.990Z,5.67
2022-09-10T07:56:18.320Z,5.10
2022-09-10T07:58:46.372Z,5.43
2022-09-10T08:01:16.193Z,5.67
2022-09-10T08:03:45.030Z,5.40
2022-09-10T08:06:13.385Z,5.60
2022-09-10T08:08:43.216Z,5.23
2022-09-10T08:11:13.669Z,6.30
2022-09-10T08:13:42.534Z,6.27
2022-09-10T08:16:15.541Z,6.10
2022-09-10T08:18:44.777Z,6.50
2022-09-10T08:21:13.726Z,5.70
2022-09-10T08:23:44.916Z,6.50
2022-09-10T08:26:12.889Z,5.40
2022-09-10T08:28:43.348Z,4.80
2022-09-10T08:31:13.027Z,5.63
2022-09-10T08:33:41.405Z,5.00
2022-09-10T08:36:12.298Z,5.20
2022-09-10T08:38:45.694Z,5.03
2022-09-10T08:41:28.262Z,5.17
2022-09-10T08:44:01.179Z,4.70
2022-09-10T08:46:33.483Z,4.77
2022-09-10T08:49:08.425Z,4.57
2022-09-10T08:51:45.491Z,5.33
2022-09-10T08:54:18.049Z,4.93
2022-09-10T08:56:47.534Z,4.40
2022-09-10T08:59:22.702Z,4.97
2022-09-10T09:01:55.033Z,4.67
2022-09-10T09:04:33.154Z,5.13
2022-09-10T09:07:04.546Z,5.20
2022-09-10T09:09:33.938Z,5.30
2022-09-10T09:12:14.404Z,5.30
2022-09-10T09:14:56.606Z,5.37
2022-09-10T09:17:37.474Z,5.33
2022-09-10T09:20:18.126Z,5.13
2022-09-10T09:22:53.309Z,5.33
2022-09-10T09:25:31.459Z,4.60
2022-09-10T09:27:59.777Z,4.80
2022-09-10T09:30:34.100Z,4.13
2022-09-10T09:33:12.410Z,5.00
2022-09-10T09:35:47.555Z,4.90
2022-09-10T09:38:22.357Z,4.67
2022-09-10T09:40:56.442Z,5.27
2022-09-10T09:43:34.090Z,4.40
2022-09-10T09:46:03.420Z,4.97
2022-09-10T09:48:38.833Z,4.67
2022-09-10T09:51:11.616Z,4.07
2022-09-10T09:53:42.300Z,4.00
2022-09-10T09:56:22.404Z,4.43
2022-09-10T09:58:52.105Z,4.13
2022-09-10T10:01:23.126Z,4.40
2022-09-10T10:03:58.780Z,4.20
2022-09-10T10:06:29.704Z,4.10
2022-09-10T10:09:03.608Z,4.50
2022-09-10T10:11:47.257Z,3.70
2022-09-10T10:14:24.832Z,3.50
2022-09-10T10:16:57.356Z,3.50
2022-09-10T10:19:34.211Z,3.37
2022-09-10T10:22:25.122Z,3.17
2022-09-10T10:24:54.449Z,3.40
2022-09-10T10:27:33.036Z,3.37
2022-09-10T10:30:04.690Z,3.10
2022-09-10T10:32:44.729Z,3.37
2022-09-10T10:35:32.832Z,3.33
2022-09-10T10:38:26.470Z,3.10
2022-09-10T10:41:08.247Z,3.27
2022-09-10T10:43:51.963Z,2.97
2022-09-10T10:46:23.077Z,3.10
2022-09-10T10:49:03.822Z,2.90
2022-09-10T10:51:41.597Z,3.00
2022-09-10T10:54:35.283Z,2.90
2022-09-10T10:57:17.736Z,3.00
2022-09-10T10:59:55.084Z,3.13
2022-09-10T11:02:34.901Z,3.50
2022-09-10T11:05:17.026Z,3.20
2022-09-10T11:07:45.839Z,3.07
2022-09-10T11:10:21.103Z,3.00
2022-09-10T11:12:53.624Z,3.10
2022-09-10T11:15:33.487Z,2.60
2022-09-10T11:18:08.543Z,2.77
2022-09-10T11:20:42.525Z,2.90
2022-09-10T11:23:20.719Z,2.80
2022-09-10T11:25:56.579Z,2.73
2022-09-10T11:28:30.055Z,2.67
2022-09-10T11:31:07.818Z,2.60
2022-09-10T11:33:44.231Z,2.40
2022-09-10T11:36:18.520Z,2.13
2022-09-10T11:38:55.731Z,2.50
2022-09-10T11:41:25.271Z,2.37
2022-09-10T11:44:00.714Z,2.07
2022-09-10T11:46:35.562Z,1.73
2022-09-10T11:49:10.439Z,1.70
2022-09-10T11:51:40.012Z,1.80
2022-09-10T11:54:13.453Z,1.70
2022-09-10T11:56:59.680Z,1.87
2022-09-10T11:59:51.778Z,1.70
2022-09-10T12:02:59.308Z,2.10
2022-09-10T12:05:36.691Z,1.70
2022-09-10T12:08:17.627Z,2.30
2022-09-10T12:10:54.280Z,2.50
2022-09-10T12:13:23.119Z,2.67
2022-09-10T12:15:56.064Z,2.60
2022-09-10T12:18:29.171Z,2.80
2022-09-10T12:21:02.639Z,2.87
2022-09-10T12:23:33.664Z,2.10
2022-09-10T12:26:07.324Z,2.00
2022-09-10T12:29:06.724Z,1.83
2022-09-10T12:32:12.318Z,2.10
2022-09-10T12:34:42.360Z,1.90
2022-09-10T12:37:27.880Z,2.00
2022-09-10T12:40:49.684Z,2.03
2022-09-10T12:43:54.092Z,1.80
2022-09-10T12:46:25.787Z,1.83
2022-09-10T12:49:11.860Z,2.17
2022-09-10T12:51:58.013Z,2.27
2022-09-10T12:54:45.788Z,2.10
2022-09-10T12:57:40.420Z,2.00
2022-09-10T13:00:17.973Z,2.00
2022-09-10T13:02:52.077Z,2.10
2022-09-10T13:05:27.319Z,2.00
2022-09-10T13:08:12.579Z,2.30
2022-09-10T13:10:42.266Z,2.20
2022-09-10T13:13:34.410Z,2.20
2022-09-10T13:16:03.754Z,2.40
2022-09-10T13:18:33.932Z,2.10
2022-09-10T13:21:51.097Z,2.30
2022-09-10T13:24:59.815Z,2.20
2022-09-10T13:27:38.969Z,2.20
2022-09-10T13:30:17.790Z,1.93
2022-09-10T13:32:52.195Z,1.90
2022-09-10T13:35:47.315Z,1.80
2022-09-10T13:38:30.004Z,1.80
2022-09-10T13:41:27.373Z,1.60
2022-09-10T13:44:21.526Z,1.70
2022-09-10T13:46:55.123Z,1.80
2022-09-10T13:49:31.275Z,1.63
2022-09-10T13:52:02.228Z,1.77
2022-09-10T13:54:35.685Z,1.67
2022-09-10T13:57:13.595Z,2.00
2022-09-10T13:59:42.905Z,1.90
2022-09-10T14:02:10.811Z,1.80
2022-09-10T14:04:44.745Z,1.80
2022-09-10T14:07:16.202Z,1.50
2022-09-10T14:09:46.575Z,1.80
2022-09-10T14:12:19.216Z,1.80
2022-09-10T14:14:51.634Z,1.90
2022-09-10T14:17:23.544Z,1.70
2022-09-10T14:19:57.967Z,1.80
2022-09-10T14:22:27.170Z,1.87
2022-09-10T14:24:56.512Z,2.00
2022-09-10T14:27:28.480Z,1.80
2022-09-10T14:29:57.764Z,1.90
2022-09-10T14:32:30.807Z,1.70
2022-09-10T14:34:59.395Z,1.80
2022-09-10T14:37:45.234Z,2.00
2022-09-10T14:40:19.236Z,1.67
2022-09-10T14:42:49.726Z,2.00
2022-09-10T14:45:40.058Z,1.90
2022-09-10T14:48:28.557Z,1.70
2022-09-10T14:51:18.801Z,1.90
2022-09-10T14:53:51.054Z,1.70
2022-09-10T14:56:24.782Z,1.60
2022-09-10T14:58:59.312Z,1.60
2022-09-10T15:01:27.237Z,1.80
2022-09-10T15:03:55.289Z,1.60
2022-09-10T15:06:26.367Z,1.60
2022-09-10T15:08:56.888Z,1.70
2022-09-10T15:11:27.290Z,1.80
2022-09-10T15:13:59.257Z,1.70
2022-09-10T15:16:27.644Z,1.60
2022-09-10T15:18:55.604Z,1.67
2022-09-10T15:21:23.519Z,1.57
2022-09-10T15:23:51.935Z,1.40
2022-09-10T15:26:19.869Z,1.37
2022-09-10T15:28:47.804Z,1.40
2022-09-10T15:31:28.455Z,1.20
2022-09-10T15:33:58.650Z,1.40
2022-09-10T15:36:28.354Z,1.60
2022-09-10T15:38:59.741Z,1.40
2022-09-10T15:41:27.965Z,1.40
2022-09-10T15:43:55.882Z,1.60
2022-09-10T15:46:25.302Z,1.40
2022-09-10T15:48:53.785Z,1.70
2022-09-10T15:51:23.875Z,1.60
2022-09-10T15:53:53.639Z,1.47
2022-09-10T15:56:24.218Z,1.53
2022-09-10T15:58:55.090Z,1.53
2022-09-10T16:01:25.150Z,1.50
2022-09-10T16:03:56.418Z,1.50
2022-09-10T16:06:27.377Z,1.20
2022-09-10T16:08:57.789Z,1.13
2022-09-10T16:11:26.472Z,1.20
2022-09-10T16:13:54.659Z,1.10
2022-09-10T16:16:24.350Z,1.37
2022-09-10T16:18:55.607Z,1.30
2022-09-10T16:21:26.248Z,1.33
2022-09-10T16:23:56.737Z,1.30
2022-09-10T16:26:27.619Z,1.20
2022-09-10T16:28:57.171Z,1.10
2022-09-10T16:31:26.968Z,1.10
2022-09-10T16:33:58.628Z,1.20
2022-09-10T16:36:27.215Z,1.10
2022-09-10T16:38:56.865Z,0.80
2022-09-10T16:41:26.933Z,0.90
2022-09-10T16:43:56.793Z,1.07
2022-09-10T16:46:25.014Z,1.00
2022-09-10T16:48:54.587Z,1.00
2022-09-10T16:51:25.795Z,1.00
2022-09-10T16:53:56.972Z,1.03
2022-09-10T16:56:26.103Z,0.90
2022-09-10T16:58:54.110Z,0.90
2022-09-10T17:01:22.096Z,1.07
2022-09-10T17:03:50.804Z,1.10
2022-09-10T17:06:20.157Z,1.13
2022-09-10T17:08:50.144Z,1.20
2022-09-10T17:11:19.682Z,1.23
2022-09-10T17:13:48.268Z,1.30
2022-09-10T17:16:25.715Z,1.20
2022-09-10T17:18:58.111Z,1.20
2022-09-10T17:21:26.847Z,1.40
2022-09-10T17:23:57.250Z,1.30
2022-09-10T17:26:25.368Z,1.40
2022-09-10T17:28:55.060Z,1.30
2022-09-10T17:31:27.516Z,1.47
2022-09-10T17:33:56.715Z,1.47
2022-09-10T17:36:28.227Z,1.30
2022-09-10T17:38:59.382Z,1.20
2022-09-10T17:41:28.106Z,1.20
2022-09-10T17:43:56.698Z,1.10
2022-09-10T17:46:25.403Z,1.10
2022-09-10T17:48:54.695Z,1.10
2022-09-10T17:51:24.491Z,1.20
2022-09-10T17:53:54.028Z,1.03
2022-09-10T17:56:25.239Z,1.10
2022-09-10T17:58:57.180Z,1.00
2022-09-10T18:01:26.895Z,0.90
2022-09-10T18:03:55.887Z,1.10
2022-09-10T18:06:25.231Z,0.80
2022-09-10T18:08:53.744Z,1.10
2022-09-10T18:11:27.168Z,0.90
2022-09-10T18:13:57.204Z,1.10
2022-09-10T18:16:27.914Z,1.20
2022-09-10T18:18:58.323Z,1.10
2022-09-10T18:21:29.513Z,1.10
2022-09-10T18:24:00.289Z,1.10
2022-09-10T18:26:31.623Z,1.30
2022-09-10T18:29:02.064Z,1.17
2022-09-10T18:31:32.345Z,1.40
2022-09-10T18:34:01.911Z,1.40
2022-09-10T18:36:30.500Z,1.60
2022-09-10T18:38:58.957Z,1.80
2022-09-10T18:41:28.139Z,1.70
2022-09-10T18:43:59.788Z,1.70
2022-09-10T18:46:29.160Z,1.60
2022-09-10T18:48:57.870Z,1.70
2022-09-10T18:51:27.794Z,1.70
2022-09-10T18:53:58.300Z,1.70
2022-09-10T18:56:27.512Z,1.70
2022-09-10T18:58:58.829Z,1.80
2022-09-10T19:01:29.321Z,1.73
2022-09-10T19:03:58.066Z,1.97
2022-09-10T19:06:28.911Z,1.83
2022-09-10T19:08:59.058Z,1.90
2022-09-10T19:11:33.469Z,1.60
2022-09-10T19:14:04.913Z,1.90
2022-09-10T19:16:35.120Z,1.80
2022-09-10T19:19:05.479Z,1.60
2022-09-10T19:21:35.376Z,1.70
2022-09-10T19:24:04.361Z,1.80
2022-09-10T19:26:34.480Z,1.70
2022-09-10T19:29:05.659Z,2.10
2022-09-10T19:31:35.977Z,2.43
2022-09-10T19:34:09.338Z,2.30
2022-09-10T19:36:37.453Z,2.10
2022-09-10T19:39:07.457Z,2.13
2022-09-10T19:41:36.779Z,2.50
2022-09-10T19:44:08.333Z,2.20
2022-09-10T19:46:38.944Z,2.80
2022-09-10T19:49:10.142Z,2.87
2022-09-10T19:51:39.457Z,2.80
2022-09-10T19:54:07.919Z,3.00
2022-09-10T19:56:38.169Z,3.30
2022-09-10T19:59:08.913Z,3.37
2022-09-10T20:01:39.236Z,2.93
2022-09-10T20:04:09.062Z,3.40
2022-09-10T20:06:37.744Z,3.20
2022-09-10T20:09:07.716Z,2.80
2022-09-10T20:11:36.116Z,3.40
2022-09-10T20:14:08.142Z,3.10
2022-09-10T20:16:39.065Z,3.43
2022-09-10T20:19:08.125Z,3.57
2022-09-10T20:21:37.559Z,3.50
2022-09-10T20:24:08.040Z,3.90
2022-09-10T20:26:41.066Z,3.50
2022-09-10T20:29:12.644Z,3.33
2022-09-10T20:31:43.732Z,3.60
2022-09-10T20:34:13.709Z,3.90
2022-09-10T20:36:42.297Z,3.23
2022-09-10T20:39:11.725Z,3.40
2022-09-10T20:41:40.946Z,3.63
2022-09-10T20:44:09.128Z,3.80
2022-09-10T20:46:38.150Z,3.57
2022-09-10T20:49:07.649Z,3.80
2022-09-10T20:51:38.357Z,3.50
2022-09-10T20:54:08.563Z,3.40
2022-09-10T20:56:36.598Z,3.30
2022-09-10T20:59:04.890Z,3.20
2022-09-10T21:01:33.187Z,3.60
2022-09-10T21:04:03.129Z,3.40
2022-09-10T21:06:34.591Z,2.97
2022-09-10T21:09:03.371Z,3.10
2022-09-10T21:11:33.693Z,3.60
2022-09-10T21:14:03.310Z,3.40
2022-09-10T21:16:33.302Z,3.50
2022-09-10T21:19:02.478Z,3.47
2022-09-10T21:21:34.283Z,3.03
2022-09-10T21:24:03.465Z,2.87
2022-09-10T21:26:35.487Z,2.87
2022-09-10T21:29:06.384Z,2.60
2022-09-10T21:31:36.714Z,2.90
2022-09-10T21:34:05.806Z,3.10
2022-09-10T21:36:37.586Z,3.07
2022-09-10T21:39:09.959Z,3.10
2022-09-10T21:41:40.646Z,3.30
2022-09-10T21:44:14.292Z,2.93
2022-09-10T21:46:43.020Z,2.60
2022-09-10T21:49:11.411Z,2.87
2022-09-10T21:51:41.464Z,3.20
2022-09-10T21:54:14.402Z,2.67
2022-09-10T21:56:42.626Z,2.80
2022-09-10T21:59:12.346Z,2.87
2022-09-10T22:01:43.921Z,2.43
2022-09-10T22:04:12.684Z,2.90
2022-09-10T22:06:42.709Z,2.63
2022-09-10T22:09:12.753Z,3.10
2022-09-10T22:11:43.186Z,2.60
2022-09-10T22:14:16.098Z,2.50
2022-09-10T22:16:45.560Z,2.70
2022-09-10T22:19:15.909Z,2.90
2022-09-10T22:21:45.433Z,2.70
2022-09-10T22:24:17.468Z,2.77
2022-09-10T22:26:46.052Z,2.90
2022-09-10T22:29:16.496Z,2.40
2022-09-10T22:31:44.584Z,2.90
2022-09-10T22:34:14.645Z,2.90
2022-09-10T22:36:45.886Z,2.53
2022-09-10T22:39:16.241Z,3.00
2022-09-10T22:41:45.371Z,2.40
2022-09-10T22:44:13.425Z,2.10
2022-09-10T22:46:43.138Z,2.50
2022-09-10T22:49:11.481Z,2.00
2022-09-10T22:51:42.041Z,2.50
2022-09-10T22:54:11.856Z,2.33
2022-09-10T22:56:40.267Z,2.00
2022-09-10T22:59:12.249Z,2.23
2022-09-10T23:01:41.109Z,2.77
2022-09-10T23:04:12.557Z,2.60
2022-09-10T23:06:41.211Z,3.00
2022-09-10T23:09:12.772Z,2.77
2022-09-10T23:11:42.392Z,2.70
2022-09-10T23:14:13.533Z,2.70
2022-09-10T23:16:43.356Z,3.03
2022-09-10T23:19:14.225Z,3.10
2022-09-10T23:21:43.677Z,2.80
2022-09-10T23:24:16.056Z,2.57
2022-09-10T23:26:45.053Z,3.10
2022-09-10T23:29:17.107Z,2.50
2022-09-10T23:31:46.232Z,2.83
2022-09-10T23:34:16.117Z,2.97
2022-09-10T23:36:46.948Z,2.90
2022-09-10T23:39:19.844Z,2.90
2022-09-10T23:41:48.434Z,2.97
2022-09-10T23:44:17.084Z,2.50
2022-09-10T23:46:45.759Z,2.67
2022-09-10T23:49:13.839Z,3.10
2022-09-10T23:51:42.244Z,3.00
2022-09-10T23:54:10.857Z,3.07
2022-09-10T23:56:40.778Z,2.70
2022-09-10T23:59:09.334Z,3.20
